Time;durP1;ratioP1;P1;durP2;ratioP2;P2;SDS_P1;SDS_P2;PMS_P1;PMS_P2;Temp;Humidity;BMP_temperature;BMP_pressure;BME280_temperature;BME280_humidity;BME280_pressure;Samples;Min_cycle;Max_cycle;Signal;HPM_P1;HPM_P2
2023/01/29 00:02:09;;;;;;;411.63;182.50;;;;;;;;;;5020237;28;20850;-53
2023/01/29 00:04:35;;;;;;;403.93;177.43;;;;;;;;;;5026941;28;20339;-53
2023/01/29 00:07:01;;;;;;;401.47;182.03;;;;;;;;;;4999097;28;20237;-53
2023/01/29 00:09:28;;;;;;;502.80;222.13;;;;;;;;;;4995838;28;20213;-53
2023/01/29 00:11:54;;;;;;;506.10;226.37;;;;;;;;;;4994503;28;20206;-52
2023/01/29 00:14:20;;;;;;;465.93;214.00;;;;;;;;;;5014918;28;20253;-53
2023/01/29 00:16:46;;;;;;;437.40;193.73;;;;;;;;;;5004554;28;20389;-53
2023/01/29 00:19:12;;;;;;;547.50;269.70;;;;;;;;;;5014831;28;20226;-52
2023/01/29 00:21:40;;;;;;;502.33;227.77;;;;;;;;;;4991284;28;20271;-53
2023/01/29 00:24:06;;;;;;;475.97;207.53;;;;;;;;;;4999008;28;20428;-53
2023/01/29 00:26:32;;;;;;;418.43;192.37;;;;;;;;;;4993836;28;20249;-52
2023/01/29 00:29:01;;;;;;;465.30;215.10;;;;;;;;;;4985302;28;20359;-53
2023/01/29 00:31:28;;;;;;;394.93;183.20;;;;;;;;;;4997006;28;20218;-52
2023/01/29 00:33:54;;;;;;;525.83;235.03;;;;;;;;;;4998562;28;20490;-53
2023/01/29 00:36:21;;;;;;;486.80;213.50;;;;;;;;;;4999921;28;20217;-52
2023/01/29 00:38:53;;;;;;;494.43;211.30;;;;;;;;;;4995597;28;20692;-53
2023/01/29 00:46:50;;;;;;;511.03;234.27;;;;;;;;;;5002189;28;21864;-53
2023/01/29 00:49:16;;;;;;;488.10;215.93;;;;;;;;;;5002900;28;20372;-53
2023/01/29 00:51:42;;;;;;;485.50;220.53;;;;;;;;;;4991630;28;20214;-52
2023/01/29 00:54:08;;;;;;;475.33;196.67;;;;;;;;;;4997021;28;20223;-53
2023/01/29 00:56:35;;;;;;;455.57;199.00;;;;;;;;;;4995024;28;20182;-53
2023/01/29 00:59:01;;;;;;;471.63;201.87;;;;;;;;;;5005227;28;20249;-52
2023/01/29 01:04:13;;;;;;;410.77;204.97;;;;;;;;;;4967922;22;20277;-50
2023/01/29 01:06:40;;;;;;;410.77;198.57;;;;;;;;;;4942663;28;20426;-50
2023/01/29 01:11:51;;;;;;;507.40;259.37;;;;;;;;;;4930634;28;21199;-50
2023/01/29 01:14:18;;;;;;;474.97;234.50;;;;;;;;;;4974139;28;20940;-50
2023/01/29 01:16:45;;;;;;;429.73;214.07;;;;;;;;;;4975461;28;20242;-50
2023/01/29 01:19:12;;;;;;;443.23;218.33;;;;;;;;;;4950693;28;20217;-50
2023/01/29 01:21:38;;;;;;;441.93;220.70;;;;;;;;;;4952900;28;20601;-50
2023/01/29 01:24:04;;;;;;;490.80;254.07;;;;;;;;;;4952241;28;20335;-50
2023/01/29 01:26:31;;;;;;;494.53;248.90;;;;;;;;;;4963388;28;20241;-52
2023/01/29 01:28:57;;;;;;;530.87;262.17;;;;;;;;;;4950326;28;20216;-50
2023/01/29 01:31:23;;;;;;;472.97;237.73;;;;;;;;;;4943986;28;20226;-51
2023/01/29 01:33:50;;;;;;;389.43;198.50;;;;;;;;;;4977669;28;20352;-51
2023/01/29 01:36:17;;;;;;;508.20;248.00;;;;;;;;;;4940908;28;20218;-52
2023/01/29 01:38:43;;;;;;;465.87;237.47;;;;;;;;;;4947352;28;20191;-51
2023/01/29 01:41:12;;;;;;;411.30;209.33;;;;;;;;;;4951001;28;20513;-51
2023/01/29 01:43:48;;;;;;;510.07;267.13;;;;;;;;;;4972615;28;20449;-51
2023/01/29 01:46:14;;;;;;;547.13;274.77;;;;;;;;;;4952850;28;20762;-51
2023/01/29 01:48:41;;;;;;;421.43;215.90;;;;;;;;;;4959911;28;20402;-51
2023/01/29 01:51:07;;;;;;;496.33;255.60;;;;;;;;;;4972451;28;20707;-51
2023/01/29 01:53:37;;;;;;;522.43;272.27;;;;;;;;;;4946225;28;20696;-51
2023/01/29 01:56:08;;;;;;;373.00;179.63;;;;;;;;;;4966500;28;20400;-50
2023/01/29 01:58:36;;;;;;;383.13;194.40;;;;;;;;;;4979907;28;20653;-50
2023/01/29 02:01:06;;;;;;;464.17;238.33;;;;;;;;;;4953456;28;20230;-50
2023/01/29 02:11:54;;;;;;;450.60;234.30;;;;;;;;;;4966582;28;20702;-50
2023/01/29 02:14:21;;;;;;;383.93;192.57;;;;;;;;;;4983518;28;20550;-51
2023/01/29 02:16:47;;;;;;;503.83;257.00;;;;;;;;;;4959598;28;20210;-51
2023/01/29 02:19:17;;;;;;;414.57;212.23;;;;;;;;;;4957149;28;20701;-51
2023/01/29 02:22:00;;;;;;;515.37;259.37;;;;;;;;;;4957868;28;20218;-51
2023/01/29 02:24:47;;;;;;;402.37;202.67;;;;;;;;;;4952952;28;20522;-51
2023/01/29 02:27:15;;;;;;;419.73;209.37;;;;;;;;;;4997650;28;20312;-51
2023/01/29 02:29:44;;;;;;;476.37;244.00;;;;;;;;;;4970464;28;20210;-51
2023/01/29 02:32:13;;;;;;;494.67;249.23;;;;;;;;;;4967769;28;20178;-51
2023/01/29 02:37:36;;;;;;;400.27;197.60;;;;;;;;;;4962686;28;20328;-51
2023/01/29 02:40:26;;;;;;;433.37;218.20;;;;;;;;;;4939645;28;20348;-51
2023/01/29 02:43:01;;;;;;;437.43;215.23;;;;;;;;;;4955573;28;20226;-51
2023/01/29 02:45:46;;;;;;;503.67;251.20;;;;;;;;;;4950004;28;20226;-51
2023/01/29 02:48:17;;;;;;;432.87;211.43;;;;;;;;;;4943667;28;20247;-51
2023/01/29 02:50:48;;;;;;;491.27;246.13;;;;;;;;;;4963849;28;20708;-51
2023/01/29 02:53:40;;;;;;;485.63;250.80;;;;;;;;;;4957482;28;20296;-52
2023/01/29 02:56:09;;;;;;;435.60;213.27;;;;;;;;;;4947470;28;21018;-50
2023/01/29 02:58:35;;;;;;;454.23;226.60;;;;;;;;;;4959916;28;20695;-50
2023/01/29 03:01:06;;;;;;;533.70;268.40;;;;;;;;;;4957350;28;20444;-51
2023/01/29 03:03:35;;;;;;;470.23;243.37;;;;;;;;;;4949788;28;20242;-51
2023/01/29 03:06:22;;;;;;;470.60;241.23;;;;;;;;;;4978713;28;20228;-51
2023/01/29 03:09:09;;;;;;;422.77;205.73;;;;;;;;;;4955613;28;20346;-51
2023/01/29 03:11:39;;;;;;;434.33;224.37;;;;;;;;;;4952801;28;20186;-50
2023/01/29 03:14:12;;;;;;;423.60;205.70;;;;;;;;;;4975424;28;20235;-50
2023/01/29 03:16:38;;;;;;;464.43;234.27;;;;;;;;;;4976442;28;20833;-51
2023/01/29 03:19:07;;;;;;;445.60;222.60;;;;;;;;;;5008778;28;20340;-51
2023/01/29 03:21:57;;;;;;;428.10;221.17;;;;;;;;;;4991316;28;20329;-51
2023/01/29 03:32:51;;;;;;;411.00;207.83;;;;;;;;;;4945889;28;20367;-51
2023/01/29 03:35:34;;;;;;;486.47;248.57;;;;;;;;;;4974663;28;20289;-50
2023/01/29 03:38:00;;;;;;;500.00;248.83;;;;;;;;;;4951859;28;20699;-51
2023/01/29 03:40:28;;;;;;;413.40;205.57;;;;;;;;;;4952124;28;20699;-51
2023/01/29 03:43:31;;;;;;;455.23;230.20;;;;;;;;;;4953684;28;20311;-51
2023/01/29 03:46:01;;;;;;;416.77;205.60;;;;;;;;;;4909018;28;20320;-51
2023/01/29 03:48:36;;;;;;;399.03;197.33;;;;;;;;;;4949668;28;20678;-51
2023/01/29 03:51:03;;;;;;;395.10;200.83;;;;;;;;;;4956047;28;20234;-51
2023/01/29 03:53:29;;;;;;;491.93;254.03;;;;;;;;;;4962838;28;20206;-51
2023/01/29 03:56:00;;;;;;;425.67;210.53;;;;;;;;;;4959378;28;22492;-51
2023/01/29 03:58:26;;;;;;;504.03;249.00;;;;;;;;;;4951730;28;20249;-51
2023/01/29 04:00:57;;;;;;;418.67;207.10;;;;;;;;;;4953775;28;20748;-51
2023/01/29 04:03:49;;;;;;;526.83;267.57;;;;;;;;;;4958456;28;20602;-51
2023/01/29 04:06:18;;;;;;;406.53;203.23;;;;;;;;;;4967084;28;20274;-51
2023/01/29 04:09:05;;;;;;;407.63;202.30;;;;;;;;;;4971684;28;20198;-51
2023/01/29 04:11:33;;;;;;;529.33;264.83;;;;;;;;;;4952950;28;20197;-51
2023/01/29 04:13:59;;;;;;;514.10;255.33;;;;;;;;;;4963713;28;20202;-51
2023/01/29 04:16:34;;;;;;;496.63;245.77;;;;;;;;;;4976734;28;20226;-51
2023/01/29 04:19:00;;;;;;;427.13;218.93;;;;;;;;;;4961152;28;20214;-51
2023/01/29 04:21:27;;;;;;;481.43;243.50;;;;;;;;;;4957748;28;20225;-51
2023/01/29 04:23:53;;;;;;;437.30;231.53;;;;;;;;;;4957505;28;21531;-52
2023/01/29 04:26:31;;;;;;;495.80;246.23;;;;;;;;;;4950416;28;20237;-52
2023/01/29 04:28:58;;;;;;;423.33;212.33;;;;;;;;;;4958303;28;20706;-52
2023/01/29 04:31:27;;;;;;;388.87;196.57;;;;;;;;;;4955772;28;20255;-52
2023/01/29 04:34:02;;;;;;;528.07;268.47;;;;;;;;;;4953808;28;20277;-51
2023/01/29 04:36:37;;;;;;;392.57;205.17;;;;;;;;;;4949727;28;20598;-52
2023/01/29 04:39:10;;;;;;;440.27;220.67;;;;;;;;;;4955180;28;20568;-52
2023/01/29 04:41:41;;;;;;;391.17;189.70;;;;;;;;;;4959301;28;20355;-51
2023/01/29 04:44:16;;;;;;;416.27;201.33;;;;;;;;;;4959071;28;20704;-52
2023/01/29 04:46:54;;;;;;;449.40;228.13;;;;;;;;;;4958848;28;21181;-51
2023/01/29 04:49:20;;;;;;;503.83;251.87;;;;;;;;;;4954849;28;20418;-52
2023/01/29 04:51:53;;;;;;;440.30;220.60;;;;;;;;;;4963624;28;20238;-52
2023/01/29 04:54:25;;;;;;;513.03;254.93;;;;;;;;;;4952369;28;20665;-51
2023/01/29 04:57:07;;;;;;;435.87;224.83;;;;;;;;;;4974454;28;20257;-50
2023/01/29 04:59:35;;;;;;;452.10;224.47;;;;;;;;;;4965714;28;20672;-51
2023/01/29 05:02:02;;;;;;;455.60;234.17;;;;;;;;;;4986210;28;20297;-53
2023/01/29 05:04:31;;;;;;;441.03;219.20;;;;;;;;;;4970738;28;20317;-51
2023/01/29 05:06:57;;;;;;;459.43;236.77;;;;;;;;;;4956743;28;20238;-51
2023/01/29 05:09:24;;;;;;;459.37;237.53;;;;;;;;;;4961334;28;20229;-51
2023/01/29 05:11:50;;;;;;;394.30;203.83;;;;;;;;;;4962682;28;20341;-51
2023/01/29 05:14:18;;;;;;;537.33;275.83;;;;;;;;;;4968911;28;20644;-51
2023/01/29 05:16:47;;;;;;;402.37;194.20;;;;;;;;;;4967312;28;20720;-51
2023/01/29 05:19:15;;;;;;;428.77;213.90;;;;;;;;;;4972053;28;20222;-51
2023/01/29 05:21:42;;;;;;;393.73;194.27;;;;;;;;;;4992916;28;20223;-51
2023/01/29 05:24:25;;;;;;;404.13;198.73;;;;;;;;;;4975676;28;20264;-51
2023/01/29 05:29:37;;;;;;;503.80;260.83;;;;;;;;;;4948256;28;20241;-51
2023/01/29 05:32:03;;;;;;;424.40;206.27;;;;;;;;;;4956393;28;20268;-51
2023/01/29 05:34:30;;;;;;;477.07;242.33;;;;;;;;;;4974017;28;20218;-51
2023/01/29 05:36:56;;;;;;;412.27;200.97;;;;;;;;;;4970529;28;20734;-51
2023/01/29 05:39:22;;;;;;;472.33;238.90;;;;;;;;;;4958111;28;20219;-51
2023/01/29 05:41:48;;;;;;;446.50;221.67;;;;;;;;;;4953489;28;20226;-51
2023/01/29 05:44:14;;;;;;;458.83;227.07;;;;;;;;;;4961144;28;20211;-53
2023/01/29 05:46:40;;;;;;;529.77;277.13;;;;;;;;;;4958644;28;20229;-51
2023/01/29 05:49:06;;;;;;;405.23;205.13;;;;;;;;;;4963978;28;20783;-51
2023/01/29 05:51:32;;;;;;;470.17;242.93;;;;;;;;;;4965819;28;20667;-51
2023/01/29 05:53:58;;;;;;;420.43;215.50;;;;;;;;;;4944387;28;20253;-51
2023/01/29 05:56:25;;;;;;;411.97;211.87;;;;;;;;;;4960913;28;20183;-51
2023/01/29 05:58:51;;;;;;;399.23;203.40;;;;;;;;;;4951541;28;20882;-51
2023/01/29 06:01:19;;;;;;;385.60;187.80;;;;;;;;;;4957408;28;20565;-51
2023/01/29 06:03:45;;;;;;;535.97;266.50;;;;;;;;;;4959210;28;20645;-51
2023/01/29 06:06:12;;;;;;;385.77;191.93;;;;;;;;;;4966785;28;20360;-50
2023/01/29 06:08:38;;;;;;;463.97;230.20;;;;;;;;;;4953919;28;20193;-51
2023/01/29 06:11:07;;;;;;;397.07;204.40;;;;;;;;;;4964132;28;20436;-50
2023/01/29 06:13:33;;;;;;;491.97;241.73;;;;;;;;;;4973982;28;20577;-51
2023/01/29 06:15:59;;;;;;;474.40;244.00;;;;;;;;;;4961004;28;20615;-51
2023/01/29 06:18:25;;;;;;;490.70;248.77;;;;;;;;;;4948026;28;20229;-51
2023/01/29 06:20:51;;;;;;;426.00;210.13;;;;;;;;;;4955423;28;20218;-50
2023/01/29 06:23:17;;;;;;;446.67;226.43;;;;;;;;;;4954113;28;20346;-51
2023/01/29 06:25:43;;;;;;;485.57;245.47;;;;;;;;;;4966307;28;20262;-51
2023/01/29 06:28:09;;;;;;;494.00;261.57;;;;;;;;;;4958671;28;20227;-51
2023/01/29 06:30:36;;;;;;;475.40;250.00;;;;;;;;;;4964140;28;20230;-51
2023/01/29 06:33:02;;;;;;;411.13;210.17;;;;;;;;;;4950125;28;20639;-51
2023/01/29 06:35:28;;;;;;;385.23;193.73;;;;;;;;;;4979533;28;20186;-51
2023/01/29 06:37:55;;;;;;;483.40;246.67;;;;;;;;;;4953853;28;20191;-51
2023/01/29 06:40:21;;;;;;;493.00;250.87;;;;;;;;;;4976226;28;20968;-51
2023/01/29 06:42:48;;;;;;;515.93;253.03;;;;;;;;;;4964091;28;20288;-51
2023/01/29 06:45:14;;;;;;;535.60;274.90;;;;;;;;;;4965827;28;20236;-52
2023/01/29 06:47:40;;;;;;;517.03;262.33;;;;;;;;;;4958341;28;20232;-51
2023/01/29 06:50:06;;;;;;;450.73;231.53;;;;;;;;;;4958758;28;20307;-51
2023/01/29 06:52:32;;;;;;;593.33;302.10;;;;;;;;;;4957656;28;20230;-50
2023/01/29 06:54:59;;;;;;;540.57;269.23;;;;;;;;;;4948430;28;20750;-50
2023/01/29 06:57:28;;;;;;;586.03;308.47;;;;;;;;;;4943518;28;20215;-50
2023/01/29 06:59:54;;;;;;;623.80;324.90;;;;;;;;;;4959328;28;20744;-50
2023/01/29 07:02:20;;;;;;;612.93;300.73;;;;;;;;;;4963169;28;20191;-50
2023/01/29 07:04:46;;;;;;;438.57;226.43;;;;;;;;;;5029375;28;20283;-47
2023/01/29 07:07:12;;;;;;;532.67;270.37;;;;;;;;;;5004124;28;20286;-46
2023/01/29 07:09:42;;;;;;;538.73;278.10;;;;;;;;;;5001923;28;20309;-49
2023/01/29 07:12:09;;;;;;;472.10;231.70;;;;;;;;;;5000436;28;20712;-50
2023/01/29 07:14:35;;;;;;;485.23;235.17;;;;;;;;;;5009849;28;20186;-47
2023/01/29 07:17:02;;;;;;;471.77;228.00;;;;;;;;;;5042933;28;20174;-48
2023/01/29 07:19:28;;;;;;;563.57;276.07;;;;;;;;;;4978435;28;20381;-48
2023/01/29 07:21:54;;;;;;;470.20;230.53;;;;;;;;;;4993408;28;20348;-47
2023/01/29 07:24:21;;;;;;;523.27;266.70;;;;;;;;;;4975692;28;20214;-47
2023/01/29 07:26:47;;;;;;;477.20;238.63;;;;;;;;;;5000951;28;20586;-47
2023/01/29 07:29:13;;;;;;;443.47;210.43;;;;;;;;;;4974125;28;20203;-47
2023/01/29 07:31:39;;;;;;;438.93;214.40;;;;;;;;;;4967327;28;20623;-47
2023/01/29 07:34:05;;;;;;;454.03;227.07;;;;;;;;;;4977479;28;20293;-47
2023/01/29 07:36:31;;;;;;;513.93;258.63;;;;;;;;;;5007500;28;20274;-47
2023/01/29 07:38:58;;;;;;;473.27;237.07;;;;;;;;;;5001364;28;20287;-47
2023/01/29 07:41:24;;;;;;;532.57;267.93;;;;;;;;;;4989229;28;20178;-48
2023/01/29 07:43:50;;;;;;;449.37;229.73;;;;;;;;;;4990393;28;20697;-48
2023/01/29 07:46:16;;;;;;;512.07;256.50;;;;;;;;;;5015816;28;20225;-47
2023/01/29 07:48:42;;;;;;;520.13;257.63;;;;;;;;;;4971750;28;20213;-47
2023/01/29 07:51:08;;;;;;;559.77;280.13;;;;;;;;;;4988866;28;20741;-47
2023/01/29 07:53:35;;;;;;;454.63;222.27;;;;;;;;;;4989686;28;20198;-48
2023/01/29 07:56:01;;;;;;;452.70;225.03;;;;;;;;;;4988296;28;20186;-47
2023/01/29 07:58:27;;;;;;;512.47;257.80;;;;;;;;;;4962222;28;20264;-48
2023/01/29 08:00:54;;;;;;;460.97;221.47;;;;;;;;;;4966697;28;20356;-48
2023/01/29 08:03:20;;;;;;;525.90;261.67;;;;;;;;;;4996202;28;20628;-48
2023/01/29 08:05:46;;;;;;;462.00;233.03;;;;;;;;;;4978215;28;20234;-48
2023/01/29 08:08:12;;;;;;;481.23;240.10;;;;;;;;;;4988815;28;20288;-47
2023/01/29 08:10:39;;;;;;;489.00;235.97;;;;;;;;;;4983819;28;20246;-47
2023/01/29 08:13:05;;;;;;;496.83;250.90;;;;;;;;;;5015280;28;20304;-47
2023/01/29 08:15:32;;;;;;;539.40;270.30;;;;;;;;;;5001617;28;20210;-47
2023/01/29 08:17:58;;;;;;;449.93;227.63;;;;;;;;;;4957756;28;20218;-46
2023/01/29 08:20:24;;;;;;;541.13;269.87;;;;;;;;;;4958517;28;20257;-47
2023/01/29 08:22:57;;;;;;;446.33;223.27;;;;;;;;;;4957357;28;20635;-47
2023/01/29 08:25:24;;;;;;;498.80;250.53;;;;;;;;;;4958397;28;20218;-47
2023/01/29 08:27:50;;;;;;;475.73;235.60;;;;;;;;;;4972989;28;20320;-47
2023/01/29 08:30:16;;;;;;;489.57;245.37;;;;;;;;;;4956182;28;20740;-47
2023/01/29 08:32:42;;;;;;;560.10;299.60;;;;;;;;;;4956955;28;20754;-47
2023/01/29 08:35:08;;;;;;;523.70;254.03;;;;;;;;;;4958167;28;20171;-47
2023/01/29 08:37:35;;;;;;;555.97;290.50;;;;;;;;;;4955870;28;20780;-47
2023/01/29 08:40:02;;;;;;;451.87;218.70;;;;;;;;;;4955955;28;20265;-48
2023/01/29 08:42:28;;;;;;;518.30;264.80;;;;;;;;;;4999913;28;20222;-47
2023/01/29 08:44:54;;;;;;;489.27;243.00;;;;;;;;;;4999377;28;20580;-48
2023/01/29 08:47:20;;;;;;;526.67;269.53;;;;;;;;;;5000452;28;20280;-47
2023/01/29 08:49:46;;;;;;;449.57;228.87;;;;;;;;;;4983302;28;20245;-48
2023/01/29 08:52:12;;;;;;;475.57;238.83;;;;;;;;;;4985911;28;20221;-48
2023/01/29 08:54:39;;;;;;;497.50;254.10;;;;;;;;;;4972616;28;20346;-48
2023/01/29 08:57:05;;;;;;;529.17;260.33;;;;;;;;;;4986783;28;20284;-48
2023/01/29 08:59:31;;;;;;;543.93;274.37;;;;;;;;;;4976669;28;20325;-47
2023/01/29 09:01:57;;;;;;;477.70;235.23;;;;;;;;;;4981150;28;20195;-48
2023/01/29 09:04:23;;;;;;;445.07;227.17;;;;;;;;;;4983531;28;20245;-48
2023/01/29 09:06:49;;;;;;;416.50;215.33;;;;;;;;;;4971035;28;20335;-47
2023/01/29 09:09:15;;;;;;;513.63;265.27;;;;;;;;;;4983079;28;20294;-48
2023/01/29 09:11:41;;;;;;;478.63;243.17;;;;;;;;;;4981883;28;20793;-48
2023/01/29 09:14:08;;;;;;;497.80;246.33;;;;;;;;;;4962702;28;20191;-47
2023/01/29 09:16:34;;;;;;;519.30;260.93;;;;;;;;;;4989790;28;20229;-46
2023/01/29 09:19:00;;;;;;;444.53;228.20;;;;;;;;;;4994551;28;20202;-48
2023/01/29 09:21:26;;;;;;;527.37;267.87;;;;;;;;;;4969077;28;20250;-48
2023/01/29 09:23:52;;;;;;;481.10;248.63;;;;;;;;;;4979922;28;20253;-48
2023/01/29 09:26:18;;;;;;;404.57;213.37;;;;;;;;;;4970313;28;20183;-48
2023/01/29 09:28:45;;;;;;;513.70;267.37;;;;;;;;;;4991165;28;20218;-49
2023/01/29 09:31:11;;;;;;;519.03;263.03;;;;;;;;;;4985725;28;20301;-49
2023/01/29 09:33:37;;;;;;;483.63;243.57;;;;;;;;;;4978423;28;20290;-48
2023/01/29 09:36:04;;;;;;;491.77;245.80;;;;;;;;;;5005258;28;20279;-48
2023/01/29 09:38:30;;;;;;;480.83;252.90;;;;;;;;;;4997159;28;20384;-48
2023/01/29 09:40:59;;;;;;;412.50;209.80;;;;;;;;;;5010750;28;20259;-47
2023/01/29 09:43:39;;;;;;;494.57;253.73;;;;;;;;;;5009735;28;20223;-51
2023/01/29 09:46:13;;;;;;;450.57;227.40;;;;;;;;;;4983267;28;20248;-48
2023/01/29 09:48:40;;;;;;;460.20;237.83;;;;;;;;;;4977621;28;20218;-47
2023/01/29 09:51:12;;;;;;;423.77;211.63;;;;;;;;;;4996405;28;20284;-49
2023/01/29 09:53:51;;;;;;;456.10;240.10;;;;;;;;;;4997246;28;20243;-48
2023/01/29 09:56:19;;;;;;;436.00;223.10;;;;;;;;;;5000324;28;20240;-47
2023/01/29 09:58:46;;;;;;;474.73;239.43;;;;;;;;;;4965796;28;20809;-48
2023/01/29 10:01:19;;;;;;;452.30;234.30;;;;;;;;;;5002623;28;20257;-49
2023/01/29 10:04:02;;;;;;;443.63;213.27;;;;;;;;;;4989679;28;20241;-48
2023/01/29 10:06:43;;;;;;;399.07;203.73;;;;;;;;;;4984535;28;20299;-48
2023/01/29 10:09:12;;;;;;;462.27;233.83;;;;;;;;;;4981292;28;20214;-48
2023/01/29 10:12:01;;;;;;;463.60;237.47;;;;;;;;;;4984320;28;20190;-48
2023/01/29 10:14:27;;;;;;;390.10;198.57;;;;;;;;;;4969477;28;20694;-48
2023/01/29 10:17:04;;;;;;;419.20;206.63;;;;;;;;;;4984599;28;20750;-48
2023/01/29 10:19:53;;;;;;;403.77;204.60;;;;;;;;;;4984439;28;20322;-48
2023/01/29 10:22:44;;;;;;;370.97;191.90;;;;;;;;;;4980939;28;20346;-47
2023/01/29 10:25:12;;;;;;;399.33;207.23;;;;;;;;;;4990943;28;20226;-49
2023/01/29 10:27:40;;;;;;;491.30;241.03;;;;;;;;;;4982213;28;20226;-47
2023/01/29 10:30:08;;;;;;;453.40;231.17;;;;;;;;;;4985686;28;20237;-47
2023/01/29 10:32:37;;;;;;;516.90;260.23;;;;;;;;;;4976956;28;20214;-48
2023/01/29 10:35:05;;;;;;;390.50;203.00;;;;;;;;;;4985550;28;20186;-48
2023/01/29 10:37:40;;;;;;;340.33;181.77;;;;;;;;;;4998540;28;20273;-49
2023/01/29 10:40:29;;;;;;;326.67;175.53;;;;;;;;;;4982218;28;20214;-49
2023/01/29 10:43:16;;;;;;;410.80;219.50;;;;;;;;;;4994715;28;20237;-49
2023/01/29 10:45:51;;;;;;;431.27;229.70;;;;;;;;;;4980071;28;20218;-49
2023/01/29 10:48:37;;;;;;;371.57;198.83;;;;;;;;;;4994749;28;20235;-49
2023/01/29 10:51:07;;;;;;;431.80;233.73;;;;;;;;;;4980428;28;20233;-48
2023/01/29 10:53:40;;;;;;;390.73;203.67;;;;;;;;;;4992611;28;20641;-48
2023/01/29 10:56:25;;;;;;;404.00;218.33;;;;;;;;;;4987452;28;20186;-47
2023/01/29 10:58:58;;;;;;;372.23;204.53;;;;;;;;;;4993251;28;20301;-48
2023/01/29 11:01:25;;;;;;;417.00;223.10;;;;;;;;;;5005885;28;20581;-49
2023/01/29 11:03:56;;;;;;;383.57;201.73;;;;;;;;;;4999692;28;20230;-49
2023/01/29 11:06:29;;;;;;;491.03;265.67;;;;;;;;;;4989508;28;20218;-49
2023/01/29 11:09:14;;;;;;;401.50;212.07;;;;;;;;;;4985418;28;20249;-48
2023/01/29 11:11:43;;;;;;;495.93;265.30;;;;;;;;;;4990951;28;20257;-49
2023/01/29 11:14:12;;;;;;;387.93;208.47;;;;;;;;;;5012844;28;20211;-50
2023/01/29 11:16:44;;;;;;;409.90;221.30;;;;;;;;;;4984290;28;20237;-48
2023/01/29 11:19:11;;;;;;;461.43;244.33;;;;;;;;;;4995993;28;20254;-48
2023/01/29 11:21:56;;;;;;;412.87;218.37;;;;;;;;;;4998513;28;20268;-48
2023/01/29 11:24:23;;;;;;;391.67;207.03;;;;;;;;;;5023129;28;20581;-47
2023/01/29 11:26:51;;;;;;;413.57;216.33;;;;;;;;;;5004340;28;20227;-48
2023/01/29 11:29:26;;;;;;;341.27;174.20;;;;;;;;;;4991984;28;20182;-47
2023/01/29 11:31:54;;;;;;;419.07;219.70;;;;;;;;;;4968714;28;20374;-53
2023/01/29 11:34:23;;;;;;;377.17;197.03;;;;;;;;;;4997250;28;20307;-47
2023/01/29 11:36:59;;;;;;;318.27;166.03;;;;;;;;;;5003214;28;20245;-50
2023/01/29 11:39:27;;;;;;;358.77;190.30;;;;;;;;;;4990633;28;20218;-49
2023/01/29 11:41:59;;;;;;;405.03;215.23;;;;;;;;;;5004109;28;20222;-49
2023/01/29 11:44:32;;;;;;;379.63;195.13;;;;;;;;;;5003997;28;20242;-48
2023/01/29 11:47:10;;;;;;;388.53;204.73;;;;;;;;;;5014898;28;20413;-47
2023/01/29 11:49:38;;;;;;;388.70;203.97;;;;;;;;;;4998966;28;20374;-48
2023/01/29 11:52:06;;;;;;;360.77;187.80;;;;;;;;;;4999703;28;20271;-47
2023/01/29 11:54:52;;;;;;;372.80;190.70;;;;;;;;;;4985298;28;20210;-47
2023/01/29 11:57:27;;;;;;;408.23;219.60;;;;;;;;;;4985003;28;20648;-48
2023/01/29 11:59:54;;;;;;;358.37;188.67;;;;;;;;;;4987390;28;20275;-48
2023/01/29 12:02:25;;;;;;;410.47;214.40;;;;;;;;;;4999005;28;20182;-48
2023/01/29 12:04:52;;;;;;;380.87;201.30;;;;;;;;;;4993097;28;20217;-47
2023/01/29 12:07:22;;;;;;;422.00;218.47;;;;;;;;;;4969736;28;20740;-48
2023/01/29 12:09:51;;;;;;;389.00;198.07;;;;;;;;;;4999940;28;20787;-48
2023/01/29 12:12:29;;;;;;;391.87;197.23;;;;;;;;;;4990657;28;20226;-47
2023/01/29 12:15:02;;;;;;;392.83;202.17;;;;;;;;;;4993123;28;20589;-48
2023/01/29 12:17:31;;;;;;;370.20;189.53;;;;;;;;;;4992735;28;20186;-48
2023/01/29 12:20:01;;;;;;;385.20;198.07;;;;;;;;;;5019755;28;20230;-49
2023/01/29 12:22:37;;;;;;;395.30;206.80;;;;;;;;;;4988761;28;20226;-48
2023/01/29 12:25:13;;;;;;;373.73;192.80;;;;;;;;;;4993303;28;20348;-49
2023/01/29 12:27:46;;;;;;;419.27;221.10;;;;;;;;;;5020260;28;20579;-48
2023/01/29 12:30:16;;;;;;;416.90;216.13;;;;;;;;;;4991372;28;20233;-48
2023/01/29 12:32:43;;;;;;;411.67;215.17;;;;;;;;;;5015450;28;20206;-48
2023/01/29 12:44:26;;;;;;;483.83;259.60;;;;;;;;;;4973749;28;21280;-48
2023/01/29 12:46:54;;;;;;;455.57;242.13;;;;;;;;;;4983024;28;20219;-48
2023/01/29 12:49:24;;;;;;;433.23;226.50;;;;;;;;;;4991888;28;20218;-48
2023/01/29 12:51:58;;;;;;;428.57;218.83;;;;;;;;;;4990585;28;20728;-48
2023/01/29 12:54:32;;;;;;;484.23;255.37;;;;;;;;;;4998396;28;20541;-50
2023/01/29 12:57:00;;;;;;;418.97;214.30;;;;;;;;;;4991320;28;20277;-48
2023/01/29 12:59:29;;;;;;;507.43;269.67;;;;;;;;;;5011124;28;20191;-48
2023/01/29 13:01:58;;;;;;;423.03;222.43;;;;;;;;;;5007005;28;20253;-48
2023/01/29 13:04:34;;;;;;;483.23;233.93;;;;;;;;;;4973977;22;20232;-49
2023/01/29 13:07:09;;;;;;;519.43;257.07;;;;;;;;;;4953592;28;20457;-49
2023/01/29 13:09:36;;;;;;;474.87;232.30;;;;;;;;;;4967641;28;20418;-49
2023/01/29 13:12:06;;;;;;;541.23;252.63;;;;;;;;;;4956771;28;20214;-49
2023/01/29 13:14:40;;;;;;;524.20;247.43;;;;;;;;;;5019841;28;20883;-50
2023/01/29 13:17:13;;;;;;;489.77;239.43;;;;;;;;;;5041597;28;20422;-49
2023/01/29 13:19:42;;;;;;;555.60;267.63;;;;;;;;;;5043295;28;20403;-49
2023/01/29 13:22:15;;;;;;;516.67;253.80;;;;;;;;;;5033693;28;20224;-49
2023/01/29 13:24:41;;;;;;;494.83;233.20;;;;;;;;;;5039326;28;20899;-49
2023/01/29 13:27:16;;;;;;;465.83;216.73;;;;;;;;;;5064386;28;20219;-49
2023/01/29 13:29:42;;;;;;;525.63;257.33;;;;;;;;;;5043559;28;20656;-49
2023/01/29 13:32:09;;;;;;;517.23;248.23;;;;;;;;;;5049758;28;20179;-49
2023/01/29 13:34:37;;;;;;;472.40;232.57;;;;;;;;;;5043580;28;20218;-49
2023/01/29 13:37:09;;;;;;;535.63;268.47;;;;;;;;;;5037513;28;20254;-49
2023/01/29 13:39:43;;;;;;;467.80;215.93;;;;;;;;;;5037461;28;20211;-49
2023/01/29 13:42:27;;;;;;;526.23;249.77;;;;;;;;;;5036528;28;20314;-49
2023/01/29 13:44:55;;;;;;;557.43;269.63;;;;;;;;;;5034661;28;20227;-49
2023/01/29 13:47:23;;;;;;;466.70;211.87;;;;;;;;;;5044070;28;20788;-49
2023/01/29 13:49:55;;;;;;;460.80;226.63;;;;;;;;;;5044594;28;20705;-49
2023/01/29 13:52:21;;;;;;;535.77;262.77;;;;;;;;;;5045553;28;20281;-49
2023/01/29 13:54:53;;;;;;;443.23;212.83;;;;;;;;;;5041748;28;20215;-50
2023/01/29 13:57:39;;;;;;;532.27;251.50;;;;;;;;;;5044962;28;20359;-49
2023/01/29 14:00:06;;;;;;;489.60;238.07;;;;;;;;;;5027069;28;20420;-49
2023/01/29 14:02:33;;;;;;;496.30;240.53;;;;;;;;;;5043004;28;20772;-49
2023/01/29 14:05:17;;;;;;;437.50;211.07;;;;;;;;;;5048538;28;20209;-49
2023/01/29 14:07:50;;;;;;;516.13;249.17;;;;;;;;;;5050163;28;20218;-50
2023/01/29 14:10:18;;;;;;;493.83;229.83;;;;;;;;;;5065365;28;20331;-49
2023/01/29 14:12:44;;;;;;;524.83;249.00;;;;;;;;;;5064100;28;20516;-49
2023/01/29 14:15:14;;;;;;;473.63;223.40;;;;;;;;;;5060868;28;20230;-50
2023/01/29 14:17:53;;;;;;;536.83;255.73;;;;;;;;;;5071235;28;20485;-50
2023/01/29 14:20:20;;;;;;;498.70;232.97;;;;;;;;;;5055801;28;20183;-50
2023/01/29 14:22:53;;;;;;;492.40;235.97;;;;;;;;;;5054420;28;20935;-50
2023/01/29 14:25:22;;;;;;;523.73;246.00;;;;;;;;;;5039913;28;20226;-50
2023/01/29 14:27:48;;;;;;;532.83;248.40;;;;;;;;;;5050718;28;20211;-50
2023/01/29 14:30:18;;;;;;;471.00;230.37;;;;;;;;;;5041105;28;20246;-50
2023/01/29 14:32:48;;;;;;;534.63;260.87;;;;;;;;;;5041167;28;20242;-50
2023/01/29 14:35:17;;;;;;;504.23;236.40;;;;;;;;;;5041192;28;20497;-50
2023/01/29 14:37:45;;;;;;;491.47;239.57;;;;;;;;;;5048870;28;20713;-50
2023/01/29 14:40:11;;;;;;;548.40;269.67;;;;;;;;;;5038211;28;20214;-50
2023/01/29 14:42:38;;;;;;;455.87;204.47;;;;;;;;;;5037918;28;20876;-50
2023/01/29 14:45:23;;;;;;;562.60;267.47;;;;;;;;;;5039009;28;20209;-50
2023/01/29 14:47:49;;;;;;;523.13;232.13;;;;;;;;;;5046814;28;20217;-50
2023/01/29 14:50:18;;;;;;;460.03;223.20;;;;;;;;;;5046484;28;20202;-50